sensor_id;sensor_type;location;lat;lon;timestamp;temperature;humidity
14786;DHT22;7484;49.906;9.058;2022-10-16T00:01:17;15.40;99.90
14786;DHT22;7484;49.906;9.058;2022-10-16T00:03:45;15.50;99.90
14786;DHT22;7484;49.906;9.058;2022-10-16T00:06:12;15.50;99.90
14786;DHT22;7484;49.906;9.058;2022-10-16T00:08:39;15.50;99.90
14786;DHT22;7484;49.906;9.058;2022-10-16T00:11:09;15.50;99.90
14786;DHT22;7484;49.906;9.058;2022-10-16T00:13:38;15.60;99.90
14786;DHT22;7484;49.906;9.058;2022-10-16T00:16:08;15.60;99.90
14786;DHT22;7484;49.906;9.058;2022-10-16T00:18:35;15.60;99.90
14786;DHT22;7484;49.906;9.058;2022-10-16T00:21:03;15.60;99.90
14786;DHT22;7484;49.906;9.058;2022-10-16T00:23:30;15.60;99.90
14786;DHT22;7484;49.906;9.058;2022-10-16T00:25:59;15.60;99.90
14786;DHT22;7484;49.906;9.058;2022-10-16T00:28:26;15.50;99.90
14786;DHT22;7484;49.906;9.058;2022-10-16T00:30:53;15.50;99.90
14786;DHT22;7484;49.906;9.058;2022-10-16T00:33:22;15.50;99.90
14786;DHT22;7484;49.906;9.058;2022-10-16T00:35:49;15.50;99.90
14786;DHT22;7484;49.906;9.058;2022-10-16T00:38:15;15.50;99.90
14786;DHT22;7484;49.906;9.058;2022-10-16T00:40:42;15.50;99.90
14786;DHT22;7484;49.906;9.058;2022-10-16T00:43:13;15.40;99.90
14786;DHT22;7484;49.906;9.058;2022-10-16T00:45:41;15.40;99.90
14786;DHT22;7484;49.906;9.058;2022-10-16T00:48:11;15.50;99.90
14786;DHT22;7484;49.906;9.058;2022-10-16T00:50:40;15.50;99.90
14786;DHT22;7484;49.906;9.058;2022-10-16T00:53:10;15.50;99.90
14786;DHT22;7484;49.906;9.058;2022-10-16T00:55:37;15.50;99.90
14786;DHT22;7484;49.906;9.058;2022-10-16T00:58:04;15.50;99.90
14786;DHT22;7484;49.906;9.058;2022-10-16T01:00:31;15.40;99.90
14786;DHT22;7484;49.906;9.058;2022-10-16T01:03:00;15.40;99.90
14786;DHT22;7484;49.906;9.058;2022-10-16T01:05:30;15.40;99.90
14786;DHT22;7484;49.906;9.058;2022-10-16T01:08:04;15.40;99.90
14786;DHT22;7484;49.906;9.058;2022-10-16T01:10:36;15.40;99.90
14786;DHT22;7484;49.906;9.058;2022-10-16T01:13:06;15.40;99.90
14786;DHT22;7484;49.906;9.058;2022-10-16T01:15:36;15.30;99.90
14786;DHT22;7484;49.906;9.058;2022-10-16T01:18:07;15.30;99.90
14786;DHT22;7484;49.906;9.058;2022-10-16T01:20:36;15.30;99.90
14786;DHT22;7484;49.906;9.058;2022-10-16T01:23:15;15.20;99.90
14786;DHT22;7484;49.906;9.058;2022-10-16T01:26:06;15.20;99.90
14786;DHT22;7484;49.906;9.058;2022-10-16T01:28:41;15.20;99.90
14786;DHT22;7484;49.906;9.058;2022-10-16T01:31:11;15.20;99.90
14786;DHT22;7484;49.906;9.058;2022-10-16T01:33:43;15.30;99.90
14786;DHT22;7484;49.906;9.058;2022-10-16T01:36:14;15.30;99.90
14786;DHT22;7484;49.906;9.058;2022-10-16T01:38:43;15.30;99.90
14786;DHT22;7484;49.906;9.058;2022-10-16T01:41:15;15.30;99.90
14786;DHT22;7484;49.906;9.058;2022-10-16T01:43:46;15.30;99.90
14786;DHT22;7484;49.906;9.058;2022-10-16T01:46:16;15.40;99.90
14786;DHT22;7484;49.906;9.058;2022-10-16T01:48:45;15.40;99.90
14786;DHT22;7484;49.906;9.058;2022-10-16T01:51:13;15.40;99.90
14786;DHT22;7484;49.906;9.058;2022-10-16T01:53:43;15.40;99.90
14786;DHT22;7484;49.906;9.058;2022-10-16T01:56:12;15.30;99.90
14786;DHT22;7484;49.906;9.058;2022-10-16T01:58:42;15.30;99.90
14786;DHT22;7484;49.906;9.058;2022-10-16T02:01:15;15.40;99.90
14786;DHT22;7484;49.906;9.058;2022-10-16T02:03:44;15.50;99.90
14786;DHT22;7484;49.906;9.058;2022-10-16T02:06:13;15.50;99.90
14786;DHT22;7484;49.906;9.058;2022-10-16T02:08:39;15.60;99.90
14786;DHT22;7484;49.906;9.058;2022-10-16T02:11:10;15.60;99.90
14786;DHT22;7484;49.906;9.058;2022-10-16T02:13:39;15.50;99.90
14786;DHT22;7484;49.906;9.058;2022-10-16T02:16:09;15.50;99.90
14786;DHT22;7484;49.906;9.058;2022-10-16T02:18:38;15.50;99.90
14786;DHT22;7484;49.906;9.058;2022-10-16T02:21:10;15.50;99.90
14786;DHT22;7484;49.906;9.058;2022-10-16T02:23:47;15.50;99.90
14786;DHT22;7484;49.906;9.058;2022-10-16T02:26:25;15.50;99.90
14786;DHT22;7484;49.906;9.058;2022-10-16T02:28:59;15.50;99.90
14786;DHT22;7484;49.906;9.058;2022-10-16T02:31:28;15.50;99.90
14786;DHT22;7484;49.906;9.058;2022-10-16T02:33:59;15.40;99.90
14786;DHT22;7484;49.906;9.058;2022-10-16T02:36:27;15.50;99.90
14786;DHT22;7484;49.906;9.058;2022-10-16T02:38:54;15.50;99.90
14786;DHT22;7484;49.906;9.058;2022-10-16T02:41:21;15.50;99.90
14786;DHT22;7484;49.906;9.058;2022-10-16T02:43:49;15.60;99.90
14786;DHT22;7484;49.906;9.058;2022-10-16T02:46:17;15.60;99.90
14786;DHT22;7484;49.906;9.058;2022-10-16T02:48:44;15.50;99.90
14786;DHT22;7484;49.906;9.058;2022-10-16T02:51:12;15.50;99.90
14786;DHT22;7484;49.906;9.058;2022-10-16T02:53:38;15.60;99.90
14786;DHT22;7484;49.906;9.058;2022-10-16T02:56:05;15.50;99.90
14786;DHT22;7484;49.906;9.058;2022-10-16T02:58:32;15.50;99.90
14786;DHT22;7484;49.906;9.058;2022-10-16T03:00:59;15.40;99.90
14786;DHT22;7484;49.906;9.058;2022-10-16T03:03:26;15.30;99.90
14786;DHT22;7484;49.906;9.058;2022-10-16T03:05:53;15.30;99.90
14786;DHT22;7484;49.906;9.058;2022-10-16T03:08:21;15.20;99.90
14786;DHT22;7484;49.906;9.058;2022-10-16T03:10:49;15.20;99.90
14786;DHT22;7484;49.906;9.058;2022-10-16T03:13:15;15.20;99.90
14786;DHT22;7484;49.906;9.058;2022-10-16T03:15:43;15.20;99.90
14786;DHT22;7484;49.906;9.058;2022-10-16T03:18:10;15.20;99.90
14786;DHT22;7484;49.906;9.058;2022-10-16T03:20:37;15.20;99.90
14786;DHT22;7484;49.906;9.058;2022-10-16T03:23:04;15.20;99.90
14786;DHT22;7484;49.906;9.058;2022-10-16T03:25:33;15.20;99.90
14786;DHT22;7484;49.906;9.058;2022-10-16T03:28:00;15.20;99.90
14786;DHT22;7484;49.906;9.058;2022-10-16T03:30:27;15.20;99.90
14786;DHT22;7484;49.906;9.058;2022-10-16T03:32:54;15.20;99.90
14786;DHT22;7484;49.906;9.058;2022-10-16T03:35:20;15.20;99.90
14786;DHT22;7484;49.906;9.058;2022-10-16T03:37:47;15.20;99.90
14786;DHT22;7484;49.906;9.058;2022-10-16T03:40:14;15.30;99.90
14786;DHT22;7484;49.906;9.058;2022-10-16T03:42:43;15.30;99.90
14786;DHT22;7484;49.906;9.058;2022-10-16T03:45:10;15.30;99.90
14786;DHT22;7484;49.906;9.058;2022-10-16T03:47:37;15.30;99.90
14786;DHT22;7484;49.906;9.058;2022-10-16T03:50:05;15.40;99.90
14786;DHT22;7484;49.906;9.058;2022-10-16T03:52:32;15.40;99.90
14786;DHT22;7484;49.906;9.058;2022-10-16T03:54:59;15.40;99.90
14786;DHT22;7484;49.906;9.058;2022-10-16T03:57:25;15.50;99.90
14786;DHT22;7484;49.906;9.058;2022-10-16T03:59:53;15.50;99.90
14786;DHT22;7484;49.906;9.058;2022-10-16T04:02:20;15.50;99.90
14786;DHT22;7484;49.906;9.058;2022-10-16T04:04:47;15.50;99.90
14786;DHT22;7484;49.906;9.058;2022-10-16T04:07:13;15.50;99.90
14786;DHT22;7484;49.906;9.058;2022-10-16T04:09:40;15.60;99.90
14786;DHT22;7484;49.906;9.058;2022-10-16T04:12:07;15.60;99.90
14786;DHT22;7484;49.906;9.058;2022-10-16T04:14:34;15.60;99.90
14786;DHT22;7484;49.906;9.058;2022-10-16T04:17:02;15.70;99.90
14786;DHT22;7484;49.906;9.058;2022-10-16T04:19:28;15.60;99.90
14786;DHT22;7484;49.906;9.058;2022-10-16T04:21:55;15.70;99.90
14786;DHT22;7484;49.906;9.058;2022-10-16T04:24:22;15.60;99.90
14786;DHT22;7484;49.906;9.058;2022-10-16T04:26:49;15.60;99.90
14786;DHT22;7484;49.906;9.058;2022-10-16T04:29:16;15.60;99.90
14786;DHT22;7484;49.906;9.058;2022-10-16T04:31:42;15.70;99.90
14786;DHT22;7484;49.906;9.058;2022-10-16T04:34:11;15.70;99.90
14786;DHT22;7484;49.906;9.058;2022-10-16T04:36:37;15.70;99.90
14786;DHT22;7484;49.906;9.058;2022-10-16T04:39:04;15.70;99.90
14786;DHT22;7484;49.906;9.058;2022-10-16T04:41:31;15.70;99.90
14786;DHT22;7484;49.906;9.058;2022-10-16T04:43:58;15.70;99.90
14786;DHT22;7484;49.906;9.058;2022-10-16T04:46:24;15.70;99.90
14786;DHT22;7484;49.906;9.058;2022-10-16T04:48:51;15.70;99.90
14786;DHT22;7484;49.906;9.058;2022-10-16T04:51:20;15.70;99.90
14786;DHT22;7484;49.906;9.058;2022-10-16T04:53:47;15.80;99.90
14786;DHT22;7484;49.906;9.058;2022-10-16T04:56:14;15.70;99.90
14786;DHT22;7484;49.906;9.058;2022-10-16T04:58:41;15.70;99.90
14786;DHT22;7484;49.906;9.058;2022-10-16T05:01:08;15.60;99.90
14786;DHT22;7484;49.906;9.058;2022-10-16T05:03:35;15.50;99.90
14786;DHT22;7484;49.906;9.058;2022-10-16T05:06:01;15.50;99.90
14786;DHT22;7484;49.906;9.058;2022-10-16T05:08:31;15.50;99.90
14786;DHT22;7484;49.906;9.058;2022-10-16T05:10:57;15.40;99.90
14786;DHT22;7484;49.906;9.058;2022-10-16T05:13:24;15.40;99.90
14786;DHT22;7484;49.906;9.058;2022-10-16T05:15:51;15.40;99.90
14786;DHT22;7484;49.906;9.058;2022-10-16T05:18:17;15.30;99.90
14786;DHT22;7484;49.906;9.058;2022-10-16T05:20:44;15.30;99.90
14786;DHT22;7484;49.906;9.058;2022-10-16T05:23:11;15.30;99.90
14786;DHT22;7484;49.906;9.058;2022-10-16T05:25:39;15.30;99.90
14786;DHT22;7484;49.906;9.058;2022-10-16T05:28:06;15.20;99.90
14786;DHT22;7484;49.906;9.058;2022-10-16T05:30:33;15.20;99.90
14786;DHT22;7484;49.906;9.058;2022-10-16T05:33:00;15.20;99.90
14786;DHT22;7484;49.906;9.058;2022-10-16T05:35:26;15.20;99.90
14786;DHT22;7484;49.906;9.058;2022-10-16T05:37:53;15.20;99.90
14786;DHT22;7484;49.906;9.058;2022-10-16T05:40:20;15.20;99.90
14786;DHT22;7484;49.906;9.058;2022-10-16T05:42:48;15.20;99.90
14786;DHT22;7484;49.906;9.058;2022-10-16T05:45:15;15.30;99.90
14786;DHT22;7484;49.906;9.058;2022-10-16T05:47:41;15.30;99.90
14786;DHT22;7484;49.906;9.058;2022-10-16T05:50:08;15.30;99.90
14786;DHT22;7484;49.906;9.058;2022-10-16T05:52:35;15.30;99.90
14786;DHT22;7484;49.906;9.058;2022-10-16T05:55:02;15.30;99.90
14786;DHT22;7484;49.906;9.058;2022-10-16T05:57:29;15.30;99.90
14786;DHT22;7484;49.906;9.058;2022-10-16T05:59:58;15.30;99.90
14786;DHT22;7484;49.906;9.058;2022-10-16T06:02:24;15.30;99.90
14786;DHT22;7484;49.906;9.058;2022-10-16T06:04:51;15.30;99.90
14786;DHT22;7484;49.906;9.058;2022-10-16T06:07:19;15.40;99.90
14786;DHT22;7484;49.906;9.058;2022-10-16T06:09:48;15.50;99.90
14786;DHT22;7484;49.906;9.058;2022-10-16T06:12:15;15.40;99.90
14786;DHT22;7484;49.906;9.058;2022-10-16T06:14:42;15.40;99.90
14786;DHT22;7484;49.906;9.058;2022-10-16T06:17:10;15.40;99.90
14786;DHT22;7484;49.906;9.058;2022-10-16T06:19:36;15.40;99.90
14786;DHT22;7484;49.906;9.058;2022-10-16T06:22:03;15.50;99.90
14786;DHT22;7484;49.906;9.058;2022-10-16T06:24:30;15.50;99.90
14786;DHT22;7484;49.906;9.058;2022-10-16T06:26:56;15.50;99.90
14786;DHT22;7484;49.906;9.058;2022-10-16T06:29:23;15.50;99.90
14786;DHT22;7484;49.906;9.058;2022-10-16T06:31:50;15.40;99.90
14786;DHT22;7484;49.906;9.058;2022-10-16T06:34:19;15.40;99.90
14786;DHT22;7484;49.906;9.058;2022-10-16T06:36:46;15.40;99.90
14786;DHT22;7484;49.906;9.058;2022-10-16T06:39:14;15.40;99.90
14786;DHT22;7484;49.906;9.058;2022-10-16T06:41:41;15.50;99.90
14786;DHT22;7484;49.906;9.058;2022-10-16T06:44:14;15.50;99.90
14786;DHT22;7484;49.906;9.058;2022-10-16T06:46:41;15.50;99.90
14786;DHT22;7484;49.906;9.058;2022-10-16T06:49:08;15.50;99.90
14786;DHT22;7484;49.906;9.058;2022-10-16T06:51:36;15.50;99.90
14786;DHT22;7484;49.906;9.058;2022-10-16T06:54:06;15.50;99.90
14786;DHT22;7484;49.906;9.058;2022-10-16T06:56:33;15.50;99.90
14786;DHT22;7484;49.906;9.058;2022-10-16T06:59:01;15.50;99.90
14786;DHT22;7484;49.906;9.058;2022-10-16T07:01:29;15.50;99.90
14786;DHT22;7484;49.906;9.058;2022-10-16T07:03:56;15.50;99.90
14786;DHT22;7484;49.906;9.058;2022-10-16T07:06:24;15.50;99.90
14786;DHT22;7484;49.906;9.058;2022-10-16T07:08:53;15.50;99.90
14786;DHT22;7484;49.906;9.058;2022-10-16T07:11:21;15.60;99.90
14786;DHT22;7484;49.906;9.058;2022-10-16T07:13:50;15.70;99.90
14786;DHT22;7484;49.906;9.058;2022-10-16T07:16:19;15.70;99.90
14786;DHT22;7484;49.906;9.058;2022-10-16T07:18:46;15.70;99.90
14786;DHT22;7484;49.906;9.058;2022-10-16T07:21:15;15.70;99.90
14786;DHT22;7484;49.906;9.058;2022-10-16T07:23:43;15.80;99.90
14786;DHT22;7484;49.906;9.058;2022-10-16T07:26:11;15.90;99.90
14786;DHT22;7484;49.906;9.058;2022-10-16T07:28:38;15.90;99.90
14786;DHT22;7484;49.906;9.058;2022-10-16T07:31:07;16.00;99.90
14786;DHT22;7484;49.906;9.058;2022-10-16T07:33:37;16.00;99.90
14786;DHT22;7484;49.906;9.058;2022-10-16T07:36:05;16.10;99.90
14786;DHT22;7484;49.906;9.058;2022-10-16T07:38:32;16.10;99.90
14786;DHT22;7484;49.906;9.058;2022-10-16T07:41:01;16.20;99.90
14786;DHT22;7484;49.906;9.058;2022-10-16T07:43:29;16.30;99.90
14786;DHT22;7484;49.906;9.058;2022-10-16T07:45:57;16.30;99.90
14786;DHT22;7484;49.906;9.058;2022-10-16T07:48:30;16.40;99.90
14786;DHT22;7484;49.906;9.058;2022-10-16T07:51:00;16.30;99.90
14786;DHT22;7484;49.906;9.058;2022-10-16T07:53:30;16.30;99.90
14786;DHT22;7484;49.906;9.058;2022-10-16T07:56:08;16.40;99.90
14786;DHT22;7484;49.906;9.058;2022-10-16T07:58:39;16.40;99.90
14786;DHT22;7484;49.906;9.058;2022-10-16T08:01:09;16.50;99.90
14786;DHT22;7484;49.906;9.058;2022-10-16T08:03:36;16.50;99.90
14786;DHT22;7484;49.906;9.058;2022-10-16T08:06:04;16.50;99.90
14786;DHT22;7484;49.906;9.058;2022-10-16T08:08:33;16.60;99.90
14786;DHT22;7484;49.906;9.058;2022-10-16T08:11:09;16.60;99.90
14786;DHT22;7484;49.906;9.058;2022-10-16T08:13:38;16.70;99.90
14786;DHT22;7484;49.906;9.058;2022-10-16T08:16:06;16.80;99.90
14786;DHT22;7484;49.906;9.058;2022-10-16T08:18:35;16.80;99.90
14786;DHT22;7484;49.906;9.058;2022-10-16T08:21:06;16.90;99.90
14786;DHT22;7484;49.906;9.058;2022-10-16T08:23:34;16.90;99.90
14786;DHT22;7484;49.906;9.058;2022-10-16T08:26:06;16.90;99.90
14786;DHT22;7484;49.906;9.058;2022-10-16T08:28:38;17.00;99.90
14786;DHT22;7484;49.906;9.058;2022-10-16T08:31:06;17.10;99.90
14786;DHT22;7484;49.906;9.058;2022-10-16T08:33:34;17.10;99.90
14786;DHT22;7484;49.906;9.058;2022-10-16T08:36:01;17.10;99.90
14786;DHT22;7484;49.906;9.058;2022-10-16T08:38:28;17.20;99.90
14786;DHT22;7484;49.906;9.058;2022-10-16T08:41:00;17.20;99.90
14786;DHT22;7484;49.906;9.058;2022-10-16T08:43:47;17.20;99.90
14786;DHT22;7484;49.906;9.058;2022-10-16T08:46:29;17.10;99.90
14786;DHT22;7484;49.906;9.058;2022-10-16T08:49:01;17.10;99.90
14786;DHT22;7484;49.906;9.058;2022-10-16T08:51:31;17.00;99.90
14786;DHT22;7484;49.906;9.058;2022-10-16T08:54:01;17.00;99.90
14786;DHT22;7484;49.906;9.058;2022-10-16T08:56:29;16.90;99.90
14786;DHT22;7484;49.906;9.058;2022-10-16T08:58:58;16.90;99.90
14786;DHT22;7484;49.906;9.058;2022-10-16T09:01:32;16.90;99.90
14786;DHT22;7484;49.906;9.058;2022-10-16T09:06:57;16.90;99.90
14786;DHT22;7484;49.906;9.058;2022-10-16T09:09:43;16.80;99.90
14786;DHT22;7484;49.906;9.058;2022-10-16T09:12:19;16.80;99.90
14786;DHT22;7484;49.906;9.058;2022-10-16T09:14:58;16.80;99.90
14786;DHT22;7484;49.906;9.058;2022-10-16T09:17:32;16.70;99.90
14786;DHT22;7484;49.906;9.058;2022-10-16T09:20:13;16.80;99.90
14786;DHT22;7484;49.906;9.058;2022-10-16T09:22:43;16.70;99.90
14786;DHT22;7484;49.906;9.058;2022-10-16T09:25:13;16.80;99.90
14786;DHT22;7484;49.906;9.058;2022-10-16T09:27:40;16.70;99.90
14786;DHT22;7484;49.906;9.058;2022-10-16T09:30:14;16.70;99.90
14786;DHT22;7484;49.906;9.058;2022-10-16T09:32:42;16.60;99.90
14786;DHT22;7484;49.906;9.058;2022-10-16T09:35:14;16.60;99.90
14786;DHT22;7484;49.906;9.058;2022-10-16T09:37:44;16.60;99.90
14786;DHT22;7484;49.906;9.058;2022-10-16T09:40:13;16.60;99.90
14786;DHT22;7484;49.906;9.058;2022-10-16T09:42:40;16.60;99.90
14786;DHT22;7484;49.906;9.058;2022-10-16T09:45:21;16.60;99.90
14786;DHT22;7484;49.906;9.058;2022-10-16T09:47:48;16.70;99.90
14786;DHT22;7484;49.906;9.058;2022-10-16T09:50:26;16.70;99.90
14786;DHT22;7484;49.906;9.058;2022-10-16T09:53:04;16.80;99.90
14786;DHT22;7484;49.906;9.058;2022-10-16T09:55:32;16.90;99.90
14786;DHT22;7484;49.906;9.058;2022-10-16T09:58:02;17.10;99.90
14786;DHT22;7484;49.906;9.058;2022-10-16T10:00:31;17.20;99.90
14786;DHT22;7484;49.906;9.058;2022-10-16T10:02:58;17.20;99.90
14786;DHT22;7484;49.906;9.058;2022-10-16T10:05:26;17.30;99.90
14786;DHT22;7484;49.906;9.058;2022-10-16T10:07:56;17.40;99.90
14786;DHT22;7484;49.906;9.058;2022-10-16T10:10:25;17.50;99.90
14786;DHT22;7484;49.906;9.058;2022-10-16T10:12:53;17.50;99.90
14786;DHT22;7484;49.906;9.058;2022-10-16T10:15:22;17.70;99.90
14786;DHT22;7484;49.906;9.058;2022-10-16T10:17:52;17.90;99.90
14786;DHT22;7484;49.906;9.058;2022-10-16T10:20:26;18.10;99.90
14786;DHT22;7484;49.906;9.058;2022-10-16T10:22:54;18.60;99.90
14786;DHT22;7484;49.906;9.058;2022-10-16T10:25:45;19.20;99.90
14786;DHT22;7484;49.906;9.058;2022-10-16T10:28:49;19.60;99.90
14786;DHT22;7484;49.906;9.058;2022-10-16T10:31:26;20.00;99.90
14786;DHT22;7484;49.906;9.058;2022-10-16T10:34:03;20.30;99.90
14786;DHT22;7484;49.906;9.058;2022-10-16T10:36:36;20.40;99.90
14786;DHT22;7484;49.906;9.058;2022-10-16T10:39:07;20.30;99.90
14786;DHT22;7484;49.906;9.058;2022-10-16T10:42:07;20.00;99.90
14786;DHT22;7484;49.906;9.058;2022-10-16T10:44:57;19.90;99.90
14786;DHT22;7484;49.906;9.058;2022-10-16T10:47:31;19.70;99.90
14786;DHT22;7484;49.906;9.058;2022-10-16T10:50:10;19.70;99.90
14786;DHT22;7484;49.906;9.058;2022-10-16T10:52:47;19.80;99.90
14786;DHT22;7484;49.906;9.058;2022-10-16T10:55:25;20.20;99.90
14786;DHT22;7484;49.906;9.058;2022-10-16T10:58:15;20.80;99.90
14786;DHT22;7484;49.906;9.058;2022-10-16T11:00:51;21.60;99.90
14786;DHT22;7484;49.906;9.058;2022-10-16T11:03:35;22.40;99.90
14786;DHT22;7484;49.906;9.058;2022-10-16T11:06:07;23.00;99.90
14786;DHT22;7484;49.906;9.058;2022-10-16T11:08:37;23.70;99.90
14786;DHT22;7484;49.906;9.058;2022-10-16T11:11:08;24.10;99.90
14786;DHT22;7484;49.906;9.058;2022-10-16T11:13:40;24.50;99.90
14786;DHT22;7484;49.906;9.058;2022-10-16T11:16:15;24.80;99.90
14786;DHT22;7484;49.906;9.058;2022-10-16T11:18:48;24.30;99.90
14786;DHT22;7484;49.906;9.058;2022-10-16T11:21:19;24.10;99.90
14786;DHT22;7484;49.906;9.058;2022-10-16T11:23:53;24.00;99.90
14786;DHT22;7484;49.906;9.058;2022-10-16T11:26:24;23.50;99.90
14786;DHT22;7484;49.906;9.058;2022-10-16T11:28:53;22.80;99.90
14786;DHT22;7484;49.906;9.058;2022-10-16T11:31:26;22.90;99.90
14786;DHT22;7484;49.906;9.058;2022-10-16T11:34:01;23.60;99.90
14786;DHT22;7484;49.906;9.058;2022-10-16T11:36:35;24.00;99.90
14786;DHT22;7484;49.906;9.058;2022-10-16T11:39:11;24.10;99.90
14786;DHT22;7484;49.906;9.058;2022-10-16T11:41:47;24.10;99.90
14786;DHT22;7484;49.906;9.058;2022-10-16T11:44:32;23.80;99.90
14786;DHT22;7484;49.906;9.058;2022-10-16T11:47:09;23.40;99.90
14786;DHT22;7484;49.906;9.058;2022-10-16T11:49:39;22.50;99.90
14786;DHT22;7484;49.906;9.058;2022-10-16T11:52:14;21.90;99.90
14786;DHT22;7484;49.906;9.058;2022-10-16T11:54:47;21.70;99.90
14786;DHT22;7484;49.906;9.058;2022-10-16T11:57:20;21.50;99.90
14786;DHT22;7484;49.906;9.058;2022-10-16T11:59:52;21.10;99.90
14786;DHT22;7484;49.906;9.058;2022-10-16T12:02:35;21.00;99.90
14786;DHT22;7484;49.906;9.058;2022-10-16T12:05:14;21.10;99.90
14786;DHT22;7484;49.906;9.058;2022-10-16T12:07:50;21.20;99.90
14786;DHT22;7484;49.906;9.058;2022-10-16T12:10:24;21.30;99.90
14786;DHT22;7484;49.906;9.058;2022-10-16T12:12:51;21.30;99.90
14786;DHT22;7484;49.906;9.058;2022-10-16T12:15:23;21.30;99.90
14786;DHT22;7484;49.906;9.058;2022-10-16T12:17:51;21.30;99.90
14786;DHT22;7484;49.906;9.058;2022-10-16T12:20:25;21.00;99.90
14786;DHT22;7484;49.906;9.058;2022-10-16T12:22:55;21.00;99.90
14786;DHT22;7484;49.906;9.058;2022-10-16T12:25:25;20.80;99.90
14786;DHT22;7484;49.906;9.058;2022-10-16T12:28:17;20.60;99.90
14786;DHT22;7484;49.906;9.058;2022-10-16T12:30:52;20.90;99.90
14786;DHT22;7484;49.906;9.058;2022-10-16T12:33:22;21.20;99.90
14786;DHT22;7484;49.906;9.058;2022-10-16T12:35:50;21.10;99.90
14786;DHT22;7484;49.906;9.058;2022-10-16T12:38:20;20.90;99.90
14786;DHT22;7484;49.906;9.058;2022-10-16T12:40:56;20.80;99.90
14786;DHT22;7484;49.906;9.058;2022-10-16T12:43:35;20.70;99.90
14786;DHT22;7484;49.906;9.058;2022-10-16T12:46:05;20.80;99.90
14786;DHT22;7484;49.906;9.058;2022-10-16T12:48:46;20.90;99.90
14786;DHT22;7484;49.906;9.058;2022-10-16T12:51:22;20.90;99.90
14786;DHT22;7484;49.906;9.058;2022-10-16T12:53:59;20.90;99.90
14786;DHT22;7484;49.906;9.058;2022-10-16T12:56:36;21.10;99.90
14786;DHT22;7484;49.906;9.058;2022-10-16T12:59:13;21.10;99.90
14786;DHT22;7484;49.906;9.058;2022-10-16T13:01:54;21.10;99.90
14786;DHT22;7484;49.906;9.058;2022-10-16T13:04:50;21.00;99.90
14786;DHT22;7484;49.906;9.058;2022-10-16T13:07:43;20.70;99.90
14786;DHT22;7484;49.906;9.058;2022-10-16T13:10:23;20.60;99.90
14786;DHT22;7484;49.906;9.058;2022-10-16T13:16:03;20.70;99.90
14786;DHT22;7484;49.906;9.058;2022-10-16T13:18:38;20.80;99.90
14786;DHT22;7484;49.906;9.058;2022-10-16T13:21:18;20.80;99.90
14786;DHT22;7484;49.906;9.058;2022-10-16T13:23:53;20.80;99.90
14786;DHT22;7484;49.906;9.058;2022-10-16T13:26:31;20.80;99.90
14786;DHT22;7484;49.906;9.058;2022-10-16T13:29:00;20.90;99.90
14786;DHT22;7484;49.906;9.058;2022-10-16T13:31:28;20.80;99.90
14786;DHT22;7484;49.906;9.058;2022-10-16T13:33:56;20.90;99.90
14786;DHT22;7484;49.906;9.058;2022-10-16T13:36:26;20.90;99.90
14786;DHT22;7484;49.906;9.058;2022-10-16T13:39:06;21.00;99.90
14786;DHT22;7484;49.906;9.058;2022-10-16T13:41:37;21.00;99.90
14786;DHT22;7484;49.906;9.058;2022-10-16T13:44:07;21.00;99.90
14786;DHT22;7484;49.906;9.058;2022-10-16T13:46:38;21.10;99.90
14786;DHT22;7484;49.906;9.058;2022-10-16T13:49:11;21.00;99.90
14786;DHT22;7484;49.906;9.058;2022-10-16T13:51:38;21.00;99.90
14786;DHT22;7484;49.906;9.058;2022-10-16T13:54:05;20.90;99.90
14786;DHT22;7484;49.906;9.058;2022-10-16T13:56:32;20.80;99.90
14786;DHT22;7484;49.906;9.058;2022-10-16T13:59:03;20.70;99.90
14786;DHT22;7484;49.906;9.058;2022-10-16T14:01:32;20.70;99.90
14786;DHT22;7484;49.906;9.058;2022-10-16T14:04:02;20.60;99.90
14786;DHT22;7484;49.906;9.058;2022-10-16T14:06:31;20.60;99.90
14786;DHT22;7484;49.906;9.058;2022-10-16T14:09:00;20.50;99.90
14786;DHT22;7484;49.906;9.058;2022-10-16T14:11:28;20.50;99.90
14786;DHT22;7484;49.906;9.058;2022-10-16T14:13:55;20.40;99.90
14786;DHT22;7484;49.906;9.058;2022-10-16T14:16:26;20.20;99.90
14786;DHT22;7484;49.906;9.058;2022-10-16T14:18:57;20.10;99.90
14786;DHT22;7484;49.906;9.058;2022-10-16T14:21:24;20.20;99.90
14786;DHT22;7484;49.906;9.058;2022-10-16T14:23:52;20.20;99.90
14786;DHT22;7484;49.906;9.058;2022-10-16T14:26:21;20.20;99.90
14786;DHT22;7484;49.906;9.058;2022-10-16T14:28:51;20.20;99.90
14786;DHT22;7484;49.906;9.058;2022-10-16T14:31:30;20.30;99.90
14786;DHT22;7484;49.906;9.058;2022-10-16T14:33:58;20.20;99.90
14786;DHT22;7484;49.906;9.058;2022-10-16T14:36:25;20.10;99.90
14786;DHT22;7484;49.906;9.058;2022-10-16T14:38:58;20.00;99.90
14786;DHT22;7484;49.906;9.058;2022-10-16T14:41:27;20.00;99.90
14786;DHT22;7484;49.906;9.058;2022-10-16T14:43:55;20.00;99.90
14786;DHT22;7484;49.906;9.058;2022-10-16T14:46:31;20.00;99.90
14786;DHT22;7484;49.906;9.058;2022-10-16T14:49:02;20.00;99.90
14786;DHT22;7484;49.906;9.058;2022-10-16T14:51:30;20.10;99.90
14786;DHT22;7484;49.906;9.058;2022-10-16T14:53:56;20.00;99.90
14786;DHT22;7484;49.906;9.058;2022-10-16T14:56:25;20.00;99.90
14786;DHT22;7484;49.906;9.058;2022-10-16T14:58:52;20.00;99.90
14786;DHT22;7484;49.906;9.058;2022-10-16T15:01:19;20.00;99.90
14786;DHT22;7484;49.906;9.058;2022-10-16T15:03:47;20.00;99.90
14786;DHT22;7484;49.906;9.058;2022-10-16T15:06:15;20.10;99.90
14786;DHT22;7484;49.906;9.058;2022-10-16T15:08:42;20.00;99.90
14786;DHT22;7484;49.906;9.058;2022-10-16T15:11:11;19.90;99.90
14786;DHT22;7484;49.906;9.058;2022-10-16T15:13:38;19.80;99.90
14786;DHT22;7484;49.906;9.058;2022-10-16T15:16:09;19.90;99.90
14786;DHT22;7484;49.906;9.058;2022-10-16T15:18:37;20.00;99.90
14786;DHT22;7484;49.906;9.058;2022-10-16T15:21:05;19.90;99.90
14786;DHT22;7484;49.906;9.058;2022-10-16T15:23:32;19.90;99.90
14786;DHT22;7484;49.906;9.058;2022-10-16T15:25:59;20.00;99.90
14786;DHT22;7484;49.906;9.058;2022-10-16T15:28:26;20.00;99.90
14786;DHT22;7484;49.906;9.058;2022-10-16T15:30:54;20.00;99.90
14786;DHT22;7484;49.906;9.058;2022-10-16T15:33:23;19.90;99.90
14786;DHT22;7484;49.906;9.058;2022-10-16T15:35:52;19.90;99.90
14786;DHT22;7484;49.906;9.058;2022-10-16T15:38:21;19.90;99.90
14786;DHT22;7484;49.906;9.058;2022-10-16T15:40:48;19.90;99.90
14786;DHT22;7484;49.906;9.058;2022-10-16T15:43:15;19.90;99.90
14786;DHT22;7484;49.906;9.058;2022-10-16T15:45:42;19.90;99.90
14786;DHT22;7484;49.906;9.058;2022-10-16T15:48:11;19.90;99.90
14786;DHT22;7484;49.906;9.058;2022-10-16T15:50:39;19.80;99.90
14786;DHT22;7484;49.906;9.058;2022-10-16T15:53:06;19.80;99.90
14786;DHT22;7484;49.906;9.058;2022-10-16T15:55:34;19.80;99.90
14786;DHT22;7484;49.906;9.058;2022-10-16T15:58:03;19.80;99.90
14786;DHT22;7484;49.906;9.058;2022-10-16T16:00:29;19.80;99.90
14786;DHT22;7484;49.906;9.058;2022-10-16T16:02:56;19.70;99.90
14786;DHT22;7484;49.906;9.058;2022-10-16T16:05:23;19.70;99.90
14786;DHT22;7484;49.906;9.058;2022-10-16T16:07:50;19.50;99.90
14786;DHT22;7484;49.906;9.058;2022-10-16T16:10:18;19.40;99.90